sensor_id;sensor_type;location;lat;lon;timestamp;pressure;altitude;pressure_sealevel;temperature;humidity
13312;BME280;34033;48.672;9.376;2022-07-06T00:02:20;99057.78;;;22.74;48.02
13312;BME280;34033;48.672;9.376;2022-07-06T00:04:46;99063.47;;;22.74;48.04
13312;BME280;34033;48.672;9.376;2022-07-06T00:07:11;99055.13;;;22.67;48.21
13312;BME280;34033;48.672;9.376;2022-07-06T00:09:36;99062.19;;;22.62;47.91
13312;BME280;34033;48.672;9.376;2022-07-06T00:12:02;99068.47;;;22.57;48.14
13312;BME280;34033;48.672;9.376;2022-07-06T00:14:27;99058.22;;;22.60;48.31
13312;BME280;34033;48.672;9.376;2022-07-06T00:16:53;99060.50;;;22.65;48.17
13312;BME280;34033;48.672;9.376;2022-07-06T00:19:18;99060.50;;;22.65;47.91
13312;BME280;34033;48.672;9.376;2022-07-06T00:21:44;99053.31;;;22.60;48.16
13312;BME280;34033;48.672;9.376;2022-07-06T00:24:09;99055.03;;;22.58;47.84
13312;BME280;34033;48.672;9.376;2022-07-06T00:26:34;99052.84;;;22.62;47.79
13312;BME280;34033;48.672;9.376;2022-07-06T00:29:00;99052.75;;;22.65;47.36
13312;BME280;34033;48.672;9.376;2022-07-06T00:31:25;99061.16;;;22.69;47.33
13312;BME280;34033;48.672;9.376;2022-07-06T00:33:50;99055.03;;;22.58;47.89
13312;BME280;34033;48.672;9.376;2022-07-06T00:36:16;99063.91;;;22.60;47.67
13312;BME280;34033;48.672;9.376;2022-07-06T00:38:41;99064.81;;;22.57;47.63
13312;BME280;34033;48.672;9.376;2022-07-06T00:41:07;99062.66;;;22.48;47.84
13312;BME280;34033;48.672;9.376;2022-07-06T00:43:52;99069.03;;;22.52;48.10
13312;BME280;34033;48.672;9.376;2022-07-06T00:46:18;99064.28;;;22.49;47.69
13312;BME280;34033;48.672;9.376;2022-07-06T00:48:43;99065.97;;;22.46;48.00
13312;BME280;34033;48.672;9.376;2022-07-06T00:51:10;99072.91;;;22.45;48.13
13312;BME280;34033;48.672;9.376;2022-07-06T00:53:36;99065.16;;;22.46;47.99
13312;BME280;34033;48.672;9.376;2022-07-06T00:56:02;99070.97;;;22.42;48.16
13312;BME280;34033;48.672;9.376;2022-07-06T00:58:27;99065.16;;;22.33;48.44
13312;BME280;34033;48.672;9.376;2022-07-06T01:00:53;99067.09;;;22.36;48.24
13312;BME280;34033;48.672;9.376;2022-07-06T01:03:18;99069.72;;;22.31;48.36
13312;BME280;34033;48.672;9.376;2022-07-06T01:05:43;99065.28;;;22.30;48.46
13312;BME280;34033;48.672;9.376;2022-07-06T01:08:09;99073.38;;;22.31;48.60
13312;BME280;34033;48.672;9.376;2022-07-06T01:10:34;99065.50;;;22.35;48.49
13312;BME280;34033;48.672;9.376;2022-07-06T01:13:00;99077.03;;;22.32;48.48
13312;BME280;34033;48.672;9.376;2022-07-06T01:15:25;99064.47;;;22.29;48.44
13312;BME280;34033;48.672;9.376;2022-07-06T01:17:51;99068.56;;;22.28;48.94
13312;BME280;34033;48.672;9.376;2022-07-06T01:20:21;99061.97;;;22.31;48.22
13312;BME280;34033;48.672;9.376;2022-07-06T01:22:48;99070.75;;;22.24;48.53
13312;BME280;34033;48.672;9.376;2022-07-06T01:25:14;99069.03;;;22.14;48.58
13312;BME280;34033;48.672;9.376;2022-07-06T01:27:40;99063.22;;;22.05;48.90
13312;BME280;34033;48.672;9.376;2022-07-06T01:30:08;99059.44;;;22.08;48.93
13312;BME280;34033;48.672;9.376;2022-07-06T01:32:35;99068.66;;;22.12;48.80
13312;BME280;34033;48.672;9.376;2022-07-06T01:35:01;99063.31;;;22.14;48.74
13312;BME280;34033;48.672;9.376;2022-07-06T01:37:26;99063.44;;;22.11;48.88
13312;BME280;34033;48.672;9.376;2022-07-06T01:39:52;99060.69;;;22.07;49.01
13312;BME280;34033;48.672;9.376;2022-07-06T01:42:18;99066.06;;;22.05;49.11
13312;BME280;34033;48.672;9.376;2022-07-06T01:44:44;99067.16;;;21.95;49.33
13312;BME280;34033;48.672;9.376;2022-07-06T01:47:10;99070.09;;;21.91;49.39
13312;BME280;34033;48.672;9.376;2022-07-06T01:49:36;99069.66;;;21.93;49.41
13312;BME280;34033;48.672;9.376;2022-07-06T01:52:01;99063.22;;;21.89;49.49
13312;BME280;34033;48.672;9.376;2022-07-06T01:54:27;99066.44;;;21.91;49.50
13312;BME280;34033;48.672;9.376;2022-07-06T01:56:52;99062.63;;;21.97;49.55
13312;BME280;34033;48.672;9.376;2022-07-06T01:59:17;99062.41;;;22.04;49.13
13312;BME280;34033;48.672;9.376;2022-07-06T02:01:43;99061.50;;;22.08;49.01
13312;BME280;34033;48.672;9.376;2022-07-06T02:04:08;99066.50;;;22.03;49.29
13312;BME280;34033;48.672;9.376;2022-07-06T02:06:33;99070.59;;;22.02;49.07
13312;BME280;34033;48.672;9.376;2022-07-06T02:08:59;99075.50;;;22.02;49.22
13312;BME280;34033;48.672;9.376;2022-07-06T02:11:24;99072.88;;;22.08;48.95
13312;BME280;34033;48.672;9.376;2022-07-06T02:13:49;99076.97;;;22.07;49.02
13312;BME280;34033;48.672;9.376;2022-07-06T02:16:15;99068.31;;;21.97;49.24
13312;BME280;34033;48.672;9.376;2022-07-06T02:18:40;99071.59;;;21.96;49.37
13312;BME280;34033;48.672;9.376;2022-07-06T02:21:05;99067.59;;;21.93;49.25
13312;BME280;34033;48.672;9.376;2022-07-06T02:23:31;99070.28;;;21.84;49.62
13312;BME280;34033;48.672;9.376;2022-07-06T02:25:56;99070.75;;;21.83;49.67
13312;BME280;34033;48.672;9.376;2022-07-06T02:28:22;99079.06;;;21.90;49.54
13312;BME280;34033;48.672;9.376;2022-07-06T02:30:47;99075.28;;;21.80;49.94
13312;BME280;34033;48.672;9.376;2022-07-06T02:33:12;99082.66;;;21.78;49.97
13312;BME280;34033;48.672;9.376;2022-07-06T02:35:38;99075.41;;;21.77;49.82
13312;BME280;34033;48.672;9.376;2022-07-06T02:38:07;99083.59;;;21.75;49.99
13312;BME280;34033;48.672;9.376;2022-07-06T02:40:32;99083.03;;;21.80;49.86
13312;BME280;34033;48.672;9.376;2022-07-06T02:42:58;99092.56;;;21.73;49.87
13312;BME280;34033;48.672;9.376;2022-07-06T02:45:23;99095.34;;;21.77;49.86
13312;BME280;34033;48.672;9.376;2022-07-06T02:47:49;99087.59;;;21.77;49.70
13312;BME280;34033;48.672;9.376;2022-07-06T02:50:16;99098.19;;;21.77;49.97
13312;BME280;34033;48.672;9.376;2022-07-06T02:52:41;99100.66;;;21.75;49.94
13312;BME280;34033;48.672;9.376;2022-07-06T02:55:07;99098.25;;;21.73;50.00
13312;BME280;34033;48.672;9.376;2022-07-06T02:57:32;99095.78;;;21.75;49.80
13312;BME280;34033;48.672;9.376;2022-07-06T02:59:58;99101.56;;;21.72;50.18
13312;BME280;34033;48.672;9.376;2022-07-06T03:02:23;99099.03;;;21.61;50.44
13312;BME280;34033;48.672;9.376;2022-07-06T03:04:49;99098.56;;;21.62;50.27
13312;BME280;34033;48.672;9.376;2022-07-06T03:07:15;99097.69;;;21.66;50.25
13312;BME280;34033;48.672;9.376;2022-07-06T03:09:40;99097.69;;;21.66;50.17
13312;BME280;34033;48.672;9.376;2022-07-06T03:12:06;99110.75;;;21.63;50.06
13312;BME280;34033;48.672;9.376;2022-07-06T03:14:32;99113.75;;;21.43;50.65
13312;BME280;34033;48.672;9.376;2022-07-06T03:16:57;99118.72;;;21.39;50.77
13312;BME280;34033;48.672;9.376;2022-07-06T03:19:22;99121.09;;;21.41;50.94
13312;BME280;34033;48.672;9.376;2022-07-06T03:21:48;99119.44;;;21.43;50.92
13312;BME280;34033;48.672;9.376;2022-07-06T03:24:13;99117.56;;;21.37;51.23
13312;BME280;34033;48.672;9.376;2022-07-06T03:26:38;99127.59;;;21.41;51.14
13312;BME280;34033;48.672;9.376;2022-07-06T03:29:04;99116.63;;;21.27;51.33
13312;BME280;34033;48.672;9.376;2022-07-06T03:31:29;99124.34;;;21.27;51.53
13312;BME280;34033;48.672;9.376;2022-07-06T03:33:55;99112.88;;;21.30;51.35
13312;BME280;34033;48.672;9.376;2022-07-06T03:36:20;99118.91;;;21.32;51.35
13312;BME280;34033;48.672;9.376;2022-07-06T03:38:45;99123.66;;;21.23;51.62
13312;BME280;34033;48.672;9.376;2022-07-06T03:41:11;99121.81;;;21.12;51.61
13312;BME280;34033;48.672;9.376;2022-07-06T03:43:36;99125.75;;;21.18;51.59
13312;BME280;34033;48.672;9.376;2022-07-06T03:46:02;99130.81;;;21.11;51.58
13312;BME280;34033;48.672;9.376;2022-07-06T03:48:28;99126.38;;;21.10;51.78
13312;BME280;34033;48.672;9.376;2022-07-06T03:50:54;99125.75;;;21.18;51.80
13312;BME280;34033;48.672;9.376;2022-07-06T03:53:20;99123.97;;;21.25;51.73
13312;BME280;34033;48.672;9.376;2022-07-06T03:55:45;99133.47;;;21.34;51.54
13312;BME280;34033;48.672;9.376;2022-07-06T03:58:33;99122.19;;;21.31;51.61
13312;BME280;34033;48.672;9.376;2022-07-06T04:00:59;99132.25;;;21.19;51.46
13312;BME280;34033;48.672;9.376;2022-07-06T04:03:25;99129.22;;;20.77;51.86
13312;BME280;34033;48.672;9.376;2022-07-06T04:05:50;99138.72;;;20.35;53.12
13312;BME280;34033;48.672;9.376;2022-07-06T04:08:15;99136.38;;;19.90;54.44
13312;BME280;34033;48.672;9.376;2022-07-06T04:10:41;99144.72;;;19.58;55.47
13312;BME280;34033;48.672;9.376;2022-07-06T04:13:06;99145.84;;;19.41;56.45
13312;BME280;34033;48.672;9.376;2022-07-06T04:15:32;99142.03;;;19.28;56.81
13312;BME280;34033;48.672;9.376;2022-07-06T04:17:57;99141.91;;;19.11;57.32
13312;BME280;34033;48.672;9.376;2022-07-06T04:20:24;99145.84;;;18.94;57.89
13312;BME280;34033;48.672;9.376;2022-07-06T04:22:51;99148.44;;;18.85;58.32
13312;BME280;34033;48.672;9.376;2022-07-06T04:25:16;99144.09;;;18.77;58.32
13312;BME280;34033;48.672;9.376;2022-07-06T04:27:42;99146.53;;;18.75;58.80
13312;BME280;34033;48.672;9.376;2022-07-06T04:30:08;99146.28;;;18.66;59.10
13312;BME280;34033;48.672;9.376;2022-07-06T04:32:34;99151.22;;;18.62;59.50
13312;BME280;34033;48.672;9.376;2022-07-06T04:35:00;99153.72;;;18.56;59.78
13312;BME280;34033;48.672;9.376;2022-07-06T04:37:26;99155.69;;;18.59;59.78
13312;BME280;34033;48.672;9.376;2022-07-06T04:39:51;99151.22;;;18.62;59.46
13312;BME280;34033;48.672;9.376;2022-07-06T04:42:16;99151.97;;;18.66;59.63
13312;BME280;34033;48.672;9.376;2022-07-06T04:44:42;99158.38;;;18.70;59.50
13312;BME280;34033;48.672;9.376;2022-07-06T04:47:07;99159.97;;;18.71;59.42
13312;BME280;34033;48.672;9.376;2022-07-06T04:49:33;99155.91;;;18.72;59.47
13312;BME280;34033;48.672;9.376;2022-07-06T04:51:58;99155.91;;;18.72;59.37
13312;BME280;34033;48.672;9.376;2022-07-06T04:54:23;99155.97;;;18.68;59.51
13312;BME280;34033;48.672;9.376;2022-07-06T04:56:49;99159.59;;;18.69;59.50
13312;BME280;34033;48.672;9.376;2022-07-06T04:59:15;99165.25;;;18.69;59.47
13312;BME280;34033;48.672;9.376;2022-07-06T05:01:40;99166.53;;;18.64;59.70
13312;BME280;34033;48.672;9.376;2022-07-06T05:04:08;99173.00;;;18.65;59.72
13312;BME280;34033;48.672;9.376;2022-07-06T05:06:34;99162.06;;;18.67;59.69
13312;BME280;34033;48.672;9.376;2022-07-06T05:08:59;99164.50;;;18.65;59.57
13312;BME280;34033;48.672;9.376;2022-07-06T05:11:26;99172.69;;;18.59;59.69
13312;BME280;34033;48.672;9.376;2022-07-06T05:13:51;99174.81;;;18.52;59.96
13312;BME280;34033;48.672;9.376;2022-07-06T05:16:17;99178.00;;;18.54;59.95
13312;BME280;34033;48.672;9.376;2022-07-06T05:18:42;99187.31;;;18.54;59.86
13312;BME280;34033;48.672;9.376;2022-07-06T05:21:07;99181.25;;;18.56;60.09
13312;BME280;34033;48.672;9.376;2022-07-06T05:23:33;99190.44;;;18.63;59.96
13312;BME280;34033;48.672;9.376;2022-07-06T05:25:58;99183.50;;;18.68;60.07
13312;BME280;34033;48.672;9.376;2022-07-06T05:28:23;99182.63;;;18.71;59.71
13312;BME280;34033;48.672;9.376;2022-07-06T05:30:49;99180.59;;;18.71;59.75
13312;BME280;34033;48.672;9.376;2022-07-06T05:33:14;99181.81;;;18.70;59.93
13312;BME280;34033;48.672;9.376;2022-07-06T05:35:40;99180.94;;;18.77;59.74
13312;BME280;34033;48.672;9.376;2022-07-06T05:38:05;99177.59;;;18.82;59.56
13312;BME280;34033;48.672;9.376;2022-07-06T05:40:30;99175.81;;;18.92;59.43
13312;BME280;34033;48.672;9.376;2022-07-06T05:42:56;99189.19;;;18.91;58.80
13312;BME280;34033;48.672;9.376;2022-07-06T05:45:21;99180.56;;;19.02;58.48
13312;BME280;34033;48.672;9.376;2022-07-06T05:47:48;99181.31;;;19.02;58.66
13312;BME280;34033;48.672;9.376;2022-07-06T05:50:31;99190.59;;;19.06;58.33
13312;BME280;34033;48.672;9.376;2022-07-06T05:53:02;99185.66;;;19.10;57.96
13312;BME280;34033;48.672;9.376;2022-07-06T05:55:28;99188.00;;;19.15;58.37
13312;BME280;34033;48.672;9.376;2022-07-06T05:57:54;99184.91;;;19.30;57.95
13312;BME280;34033;48.672;9.376;2022-07-06T06:00:21;99194.97;;;19.34;57.69
13312;BME280;34033;48.672;9.376;2022-07-06T06:02:47;99191.56;;;19.43;57.20
13312;BME280;34033;48.672;9.376;2022-07-06T06:05:13;99186.16;;;19.52;56.65
13312;BME280;34033;48.672;9.376;2022-07-06T06:07:39;99191.72;;;19.59;56.47
13312;BME280;34033;48.672;9.376;2022-07-06T06:10:07;99195.34;;;19.60;56.64
13312;BME280;34033;48.672;9.376;2022-07-06T06:12:33;99189.75;;;19.56;56.24
13312;BME280;34033;48.672;9.376;2022-07-06T06:14:59;99194.97;;;19.57;56.55
13312;BME280;34033;48.672;9.376;2022-07-06T06:17:25;99194.94;;;19.61;56.86
13312;BME280;34033;48.672;9.376;2022-07-06T06:19:50;99198.59;;;19.81;57.28
13312;BME280;34033;48.672;9.376;2022-07-06T06:22:15;99200.22;;;20.02;55.67
13312;BME280;34033;48.672;9.376;2022-07-06T06:24:41;99207.28;;;19.94;53.40
13312;BME280;34033;48.672;9.376;2022-07-06T06:27:06;99205.47;;;20.04;54.29
13312;BME280;34033;48.672;9.376;2022-07-06T06:29:32;99196.16;;;20.23;55.35
13312;BME280;34033;48.672;9.376;2022-07-06T06:31:57;99196.97;;;20.43;54.53
13312;BME280;34033;48.672;9.376;2022-07-06T06:34:23;99199.66;;;20.50;53.13
13312;BME280;34033;48.672;9.376;2022-07-06T06:36:48;99195.44;;;20.38;51.91
13312;BME280;34033;48.672;9.376;2022-07-06T06:39:14;99205.38;;;20.27;51.67
13312;BME280;34033;48.672;9.376;2022-07-06T06:41:39;99194.47;;;20.25;52.27
13312;BME280;34033;48.672;9.376;2022-07-06T06:44:04;99201.47;;;20.21;52.51
13312;BME280;34033;48.672;9.376;2022-07-06T06:46:30;99195.19;;;20.29;52.57
13312;BME280;34033;48.672;9.376;2022-07-06T06:48:55;99194.53;;;20.22;52.13
13312;BME280;34033;48.672;9.376;2022-07-06T06:51:20;99191.19;;;20.27;51.79
13312;BME280;34033;48.672;9.376;2022-07-06T06:53:46;99196.75;;;20.34;52.42
13312;BME280;34033;48.672;9.376;2022-07-06T06:56:12;99194.38;;;20.29;52.30
13312;BME280;34033;48.672;9.376;2022-07-06T06:58:37;99204.16;;;20.28;52.77
13312;BME280;34033;48.672;9.376;2022-07-06T07:01:03;99196.44;;;20.28;51.53
13312;BME280;34033;48.672;9.376;2022-07-06T07:03:29;99194.53;;;20.61;52.35
13312;BME280;34033;48.672;9.376;2022-07-06T07:05:55;99186.59;;;20.89;51.53
13312;BME280;34033;48.672;9.376;2022-07-06T07:08:20;99191.50;;;21.04;50.99
13312;BME280;34033;48.672;9.376;2022-07-06T07:10:45;99189.47;;;21.21;50.84
13312;BME280;34033;48.672;9.376;2022-07-06T07:13:11;99183.34;;;21.23;49.28
13312;BME280;34033;48.672;9.376;2022-07-06T07:15:36;99182.91;;;21.24;49.30
13312;BME280;34033;48.672;9.376;2022-07-06T07:18:02;99183.97;;;21.30;49.92
13312;BME280;34033;48.672;9.376;2022-07-06T07:20:27;99186.09;;;21.42;49.95
13312;BME280;34033;48.672;9.376;2022-07-06T07:22:55;99185.19;;;21.45;49.08
13312;BME280;34033;48.672;9.376;2022-07-06T07:25:20;99181.66;;;21.25;49.51
13312;BME280;34033;48.672;9.376;2022-07-06T07:27:45;99183.78;;;21.37;49.66
13312;BME280;34033;48.672;9.376;2022-07-06T07:30:11;99176.47;;;21.04;49.28
13312;BME280;34033;48.672;9.376;2022-07-06T07:32:37;99170.13;;;21.16;48.56
13312;BME280;34033;48.672;9.376;2022-07-06T07:35:03;99178.66;;;21.16;48.34
13312;BME280;34033;48.672;9.376;2022-07-06T07:37:28;99178.25;;;20.98;48.89
13312;BME280;34033;48.672;9.376;2022-07-06T07:39:54;99169.28;;;20.99;48.84
13312;BME280;34033;48.672;9.376;2022-07-06T07:42:19;99178.94;;;21.02;49.05
13312;BME280;34033;48.672;9.376;2022-07-06T07:44:45;99177.63;;;21.06;49.25
13312;BME280;34033;48.672;9.376;2022-07-06T07:47:10;99170.13;;;21.16;49.54
13312;BME280;34033;48.672;9.376;2022-07-06T07:49:35;99171.88;;;21.26;49.57
13312;BME280;34033;48.672;9.376;2022-07-06T07:52:01;99170.44;;;21.34;49.02
13312;BME280;34033;48.672;9.376;2022-07-06T07:54:26;99173.81;;;21.29;49.66
13312;BME280;34033;48.672;9.376;2022-07-06T07:56:51;99160.63;;;21.23;49.39
13312;BME280;34033;48.672;9.376;2022-07-06T07:59:17;99174.28;;;21.44;48.83
13312;BME280;34033;48.672;9.376;2022-07-06T08:01:43;99176.06;;;21.38;48.50
13312;BME280;34033;48.672;9.376;2022-07-06T08:04:08;99168.84;;;21.49;48.19
13312;BME280;34033;48.672;9.376;2022-07-06T08:06:34;99172.41;;;21.37;48.83
13312;BME280;34033;48.672;9.376;2022-07-06T08:08:59;99166.84;;;21.62;48.29
13312;BME280;34033;48.672;9.376;2022-07-06T08:11:25;99173.97;;;21.71;48.56
13312;BME280;34033;48.672;9.376;2022-07-06T08:13:50;99170.88;;;21.94;48.74
13312;BME280;34033;48.672;9.376;2022-07-06T08:16:16;99167.78;;;22.17;47.75
13312;BME280;34033;48.672;9.376;2022-07-06T08:18:41;99167.00;;;22.29;47.91
13312;BME280;34033;48.672;9.376;2022-07-06T08:21:07;99167.50;;;22.40;47.42
13312;BME280;34033;48.672;9.376;2022-07-06T08:23:32;99169.47;;;22.69;47.01
13312;BME280;34033;48.672;9.376;2022-07-06T08:26:01;99163.19;;;22.49;46.75
13312;BME280;34033;48.672;9.376;2022-07-06T08:28:26;99173.28;;;21.95;47.00
13312;BME280;34033;48.672;9.376;2022-07-06T08:30:51;99176.06;;;22.12;46.90
13312;BME280;34033;48.672;9.376;2022-07-06T08:33:19;99165.75;;;22.30;46.91
13312;BME280;34033;48.672;9.376;2022-07-06T08:35:44;99179.84;;;21.92;47.44
13312;BME280;34033;48.672;9.376;2022-07-06T08:38:10;99170.78;;;22.26;47.47
13312;BME280;34033;48.672;9.376;2022-07-06T08:40:38;99160.44;;;22.45;46.52
13312;BME280;34033;48.672;9.376;2022-07-06T08:43:05;99158.28;;;22.62;46.89
13312;BME280;34033;48.672;9.376;2022-07-06T08:45:31;99164.66;;;22.53;46.13
13312;BME280;34033;48.672;9.376;2022-07-06T08:48:04;99170.81;;;22.52;46.04
13312;BME280;34033;48.672;9.376;2022-07-06T08:50:30;99172.91;;;22.22;47.53
13312;BME280;34033;48.672;9.376;2022-07-06T08:52:56;99163.75;;;22.43;47.44
13312;BME280;34033;48.672;9.376;2022-07-06T08:55:21;99173.91;;;22.57;46.62
13312;BME280;34033;48.672;9.376;2022-07-06T08:57:47;99172.66;;;22.71;46.59
13312;BME280;34033;48.672;9.376;2022-07-06T09:00:13;99162.53;;;22.82;45.69
13312;BME280;34033;48.672;9.376;2022-07-06T09:02:40;99160.25;;;22.90;45.50
13312;BME280;34033;48.672;9.376;2022-07-06T09:05:06;99165.50;;;22.92;45.93
13312;BME280;34033;48.672;9.376;2022-07-06T09:07:34;99175.19;;;22.94;45.83
13312;BME280;34033;48.672;9.376;2022-07-06T09:09:59;99166.94;;;22.58;46.67
13312;BME280;34033;48.672;9.376;2022-07-06T09:12:28;99170.63;;;22.84;45.86
13312;BME280;34033;48.672;9.376;2022-07-06T09:14:57;99168.59;;;22.97;46.35
13312;BME280;34033;48.672;9.376;2022-07-06T09:17:27;99161.28;;;22.71;45.99
13312;BME280;34033;48.672;9.376;2022-07-06T09:19:53;99164.94;;;22.84;46.21
13312;BME280;34033;48.672;9.376;2022-07-06T09:22:30;99175.06;;;22.72;46.46
13312;BME280;34033;48.672;9.376;2022-07-06T09:25:11;99172.34;;;22.94;46.17
13312;BME280;34033;48.672;9.376;2022-07-06T09:27:47;99180.31;;;22.99;46.31
13312;BME280;34033;48.672;9.376;2022-07-06T09:30:15;99179.53;;;23.11;45.96
13312;BME280;34033;48.672;9.376;2022-07-06T09:32:43;99171.53;;;23.32;45.02
13312;BME280;34033;48.672;9.376;2022-07-06T09:35:28;99171.88;;;23.46;44.01
13312;BME280;34033;48.672;9.376;2022-07-06T09:38:04;99178.91;;;23.54;42.89
13312;BME280;34033;48.672;9.376;2022-07-06T09:40:31;99186.47;;;23.48;42.88
13312;BME280;34033;48.672;9.376;2022-07-06T09:43:18;99177.66;;;23.43;43.74
13312;BME280;34033;48.672;9.376;2022-07-06T09:45:46;99178.38;;;23.47;43.75
13312;BME280;34033;48.672;9.376;2022-07-06T09:48:12;99177.78;;;23.52;43.28
13312;BME280;34033;48.672;9.376;2022-07-06T09:50:45;99177.91;;;23.36;43.36
13312;BME280;34033;48.672;9.376;2022-07-06T09:53:12;99182.34;;;23.49;44.05
13312;BME280;34033;48.672;9.376;2022-07-06T09:55:38;99182.38;;;23.71;42.72
13312;BME280;34033;48.672;9.376;2022-07-06T09:58:07;99192.28;;;23.92;42.48
13312;BME280;34033;48.672;9.376;2022-07-06T10:00:33;99185.59;;;23.73;42.61
13312;BME280;34033;48.672;9.376;2022-07-06T10:02:59;99186.88;;;24.16;42.97
13312;BME280;34033;48.672;9.376;2022-07-06T10:05:25;99195.34;;;23.97;43.08
13312;BME280;34033;48.672;9.376;2022-07-06T10:07:59;99182.81;;;23.48;42.18
13312;BME280;34033;48.672;9.376;2022-07-06T10:10:29;99191.72;;;23.12;43.34
13312;BME280;34033;48.672;9.376;2022-07-06T10:12:58;99197.69;;;22.92;44.29
13312;BME280;34033;48.672;9.376;2022-07-06T10:15:26;99195.72;;;22.89;44.46
13312;BME280;34033;48.672;9.376;2022-07-06T10:17:53;99185.56;;;23.01;44.10
13312;BME280;34033;48.672;9.376;2022-07-06T10:20:19;99192.41;;;23.28;43.21
13312;BME280;34033;48.672;9.376;2022-07-06T10:22:47;99196.41;;;23.18;43.16
13312;BME280;34033;48.672;9.376;2022-07-06T10:25:15;99195.31;;;23.76;42.85
13312;BME280;34033;48.672;9.376;2022-07-06T10:27:42;99190.47;;;24.20;42.33
13312;BME280;34033;48.672;9.376;2022-07-06T10:30:08;99194.22;;;24.60;41.65
13312;BME280;34033;48.672;9.376;2022-07-06T10:32:35;99186.00;;;24.71;41.15
13312;BME280;34033;48.672;9.376;2022-07-06T10:35:01;99192.28;;;24.57;41.76
13312;BME280;34033;48.672;9.376;2022-07-06T10:37:27;99179.75;;;24.85;40.93
13312;BME280;34033;48.672;9.376;2022-07-06T10:39:53;99185.59;;;24.82;41.29
13312;BME280;34033;48.672;9.376;2022-07-06T10:42:45;99181.16;;;25.21;41.35
13312;BME280;34033;48.672;9.376;2022-07-06T10:45:13;99199.84;;;24.42;41.61
13312;BME280;34033;48.672;9.376;2022-07-06T10:47:41;99192.44;;;24.32;41.87
13312;BME280;34033;48.672;9.376;2022-07-06T10:50:07;99197.06;;;24.17;42.71
13312;BME280;34033;48.672;9.376;2022-07-06T10:52:49;99199.34;;;24.43;41.41
13312;BME280;34033;48.672;9.376;2022-07-06T10:55:36;99191.38;;;24.38;41.60
13312;BME280;34033;48.672;9.376;2022-07-06T10:58:03;99185.47;;;24.85;41.48
13312;BME280;34033;48.672;9.376;2022-07-06T11:00:48;99189.81;;;25.39;41.23
13312;BME280;34033;48.672;9.376;2022-07-06T11:06:16;99177.81;;;25.71;38.95
13312;BME280;34033;48.672;9.376;2022-07-06T11:11:15;99184.59;;;24.76;40.98
13312;BME280;34033;48.672;9.376;2022-07-06T11:16:33;99169.78;;;25.39;39.63
13312;BME280;34033;48.672;9.376;2022-07-06T11:21:37;99168.50;;;25.40;40.13
13312;BME280;34033;48.672;9.376;2022-07-06T11:24:05;99157.16;;;25.86;39.72
13312;BME280;34033;48.672;9.376;2022-07-06T11:26:33;99157.28;;;26.28;38.93
13312;BME280;34033;48.672;9.376;2022-07-06T11:29:02;99154.88;;;26.08;38.77
13312;BME280;34033;48.672;9.376;2022-07-06T11:31:28;99151.97;;;26.53;38.01
13312;BME280;34033;48.672;9.376;2022-07-06T11:33:53;99152.81;;;26.36;37.39
13312;BME280;34033;48.672;9.376;2022-07-06T11:36:21;99162.19;;;26.54;37.18
13312;BME280;34033;48.672;9.376;2022-07-06T11:38:49;99142.41;;;26.56;36.87
13312;BME280;34033;48.672;9.376;2022-07-06T11:41:16;99146.59;;;26.37;38.28
13312;BME280;34033;48.672;9.376;2022-07-06T11:43:43;99147.38;;;25.47;39.19
13312;BME280;34033;48.672;9.376;2022-07-06T11:46:33;99150.47;;;25.12;39.80
13312;BME280;34033;48.672;9.376;2022-07-06T11:51:27;99140.22;;;25.51;37.92
13312;BME280;34033;48.672;9.376;2022-07-06T11:53:58;99137.53;;;26.02;39.14
13312;BME280;34033;48.672;9.376;2022-07-06T11:56:25;99135.91;;;26.47;37.83
13312;BME280;34033;48.672;9.376;2022-07-06T11:58:57;99124.78;;;26.91;36.50
13312;BME280;34033;48.672;9.376;2022-07-06T12:01:24;99128.50;;;27.39;37.28
13312;BME280;34033;48.672;9.376;2022-07-06T12:03:51;99118.91;;;26.25;37.99
13312;BME280;34033;48.672;9.376;2022-07-06T12:06:24;99123.88;;;25.88;38.80
13312;BME280;34033;48.672;9.376;2022-07-06T12:08:58;99121.81;;;25.89;39.42
13312;BME280;34033;48.672;9.376;2022-07-06T12:11:28;99124.81;;;25.76;39.16
13312;BME280;34033;48.672;9.376;2022-07-06T12:13:56;99117.63;;;26.26;38.95
13312;BME280;34033;48.672;9.376;2022-07-06T12:16:29;99119.53;;;26.38;38.47
13312;BME280;34033;48.672;9.376;2022-07-06T12:18:54;99126.72;;;26.06;38.78
13312;BME280;34033;48.672;9.376;2022-07-06T12:21:20;99114.03;;;26.58;38.23
13312;BME280;34033;48.672;9.376;2022-07-06T12:23:50;99115.59;;;25.72;39.13
13312;BME280;34033;48.672;9.376;2022-07-06T12:26:21;99114.41;;;25.24;40.10
13312;BME280;34033;48.672;9.376;2022-07-06T12:29:07;99110.63;;;25.36;40.15
13312;BME280;34033;48.672;9.376;2022-07-06T12:34:01;99121.22;;;24.77;40.86
13312;BME280;34033;48.672;9.376;2022-07-06T12:36:27;99116.28;;;24.38;41.40
13312;BME280;34033;48.672;9.376;2022-07-06T12:38:52;99113.66;;;24.22;42.02
13312;BME280;34033;48.672;9.376;2022-07-06T12:41:31;99101.00;;;24.32;42.07
13312;BME280;34033;48.672;9.376;2022-07-06T12:44:08;99111.50;;;24.35;41.93
13312;BME280;34033;48.672;9.376;2022-07-06T12:46:38;99103.22;;;24.99;41.28
13312;BME280;34033;48.672;9.376;2022-07-06T12:49:12;99114.19;;;24.91;41.38
13312;BME280;34033;48.672;9.376;2022-07-06T12:52:28;99109.41;;;24.57;41.53
13312;BME280;34033;48.672;9.376;2022-07-06T12:54:47;99111.09;;;24.85;41.88
13312;BME280;34033;48.672;9.376;2022-07-06T12:59:56;99111.81;;;24.68;42.30
13312;BME280;34033;48.672;9.376;2022-07-06T13:02:34;99117.25;;;24.75;41.44
13312;BME280;34033;48.672;9.376;2022-07-06T13:05:04;99118.09;;;24.53;42.11
13312;BME280;34033;48.672;9.376;2022-07-06T13:07:32;99113.56;;;25.05;41.85
13312;BME280;34033;48.672;9.376;2022-07-06T13:10:02;99124.31;;;24.92;41.55
13312;BME280;34033;48.672;9.376;2022-07-06T13:12:28;99119.59;;;25.56;41.17
13312;BME280;34033;48.672;9.376;2022-07-06T13:14:54;99117.34;;;25.69;40.22
13312;BME280;34033;48.672;9.376;2022-07-06T13:17:19;99110.16;;;25.47;40.59
13312;BME280;34033;48.672;9.376;2022-07-06T13:19:45;99116.66;;;25.29;40.54